sensor_id;sensor_type;location;lat;lon;timestamp;P1;durP1;ratioP1;P2;durP2;ratioP2
1925;SDS011;964;42.606;23.588;2023-02-15T00:00:07;27.23;;;15.43;;
1925;SDS011;964;42.606;23.588;2023-02-15T00:02:36;29.90;;;16.50;;
1925;SDS011;964;42.606;23.588;2023-02-15T00:05:06;28.40;;;14.30;;
1925;SDS011;964;42.606;23.588;2023-02-15T00:07:33;34.43;;;16.50;;
1925;SDS011;964;42.606;23.588;2023-02-15T00:10:00;33.50;;;18.00;;
1925;SDS011;964;42.606;23.588;2023-02-15T00:12:29;38.53;;;18.17;;
1925;SDS011;964;42.606;23.588;2023-02-15T00:14:56;38.50;;;18.73;;
1925;SDS011;964;42.606;23.588;2023-02-15T00:17:24;28.27;;;15.90;;
1925;SDS011;964;42.606;23.588;2023-02-15T00:19:53;40.57;;;19.97;;
1925;SDS011;964;42.606;23.588;2023-02-15T00:22:20;24.90;;;12.77;;
1925;SDS011;964;42.606;23.588;2023-02-15T00:24:46;30.63;;;16.70;;
1925;SDS011;964;42.606;23.588;2023-02-15T00:27:15;33.87;;;16.37;;
1925;SDS011;964;42.606;23.588;2023-02-15T00:29:41;36.87;;;19.43;;
1925;SDS011;964;42.606;23.588;2023-02-15T00:32:08;34.40;;;16.97;;
1925;SDS011;964;42.606;23.588;2023-02-15T00:34:36;36.57;;;17.53;;
1925;SDS011;964;42.606;23.588;2023-02-15T00:37:03;44.80;;;18.10;;
1925;SDS011;964;42.606;23.588;2023-02-15T00:39:29;27.87;;;15.10;;
1925;SDS011;964;42.606;23.588;2023-02-15T00:41:56;40.93;;;16.33;;
1925;SDS011;964;42.606;23.588;2023-02-15T00:44:23;39.97;;;17.63;;
1925;SDS011;964;42.606;23.588;2023-02-15T00:46:49;32.77;;;16.93;;
1925;SDS011;964;42.606;23.588;2023-02-15T00:49:16;27.90;;;14.97;;
1925;SDS011;964;42.606;23.588;2023-02-15T00:51:44;25.77;;;14.20;;
1925;SDS011;964;42.606;23.588;2023-02-15T00:54:11;56.87;;;17.43;;
1925;SDS011;964;42.606;23.588;2023-02-15T00:56:37;29.13;;;15.70;;
1925;SDS011;964;42.606;23.588;2023-02-15T00:59:04;29.03;;;13.30;;
1925;SDS011;964;42.606;23.588;2023-02-15T01:01:31;28.70;;;13.87;;
1925;SDS011;964;42.606;23.588;2023-02-15T01:03:57;23.60;;;12.87;;
1925;SDS011;964;42.606;23.588;2023-02-15T01:06:24;30.37;;;14.57;;
1925;SDS011;964;42.606;23.588;2023-02-15T01:08:52;29.47;;;15.13;;
1925;SDS011;964;42.606;23.588;2023-02-15T01:11:19;44.60;;;18.97;;
1925;SDS011;964;42.606;23.588;2023-02-15T01:13:48;43.20;;;19.03;;
1925;SDS011;964;42.606;23.588;2023-02-15T01:16:15;41.07;;;19.80;;
1925;SDS011;964;42.606;23.588;2023-02-15T01:18:44;36.87;;;17.43;;
1925;SDS011;964;42.606;23.588;2023-02-15T01:21:11;19.70;;;10.20;;
1925;SDS011;964;42.606;23.588;2023-02-15T01:23:40;35.23;;;15.03;;
1925;SDS011;964;42.606;23.588;2023-02-15T01:26:08;26.63;;;15.50;;
1925;SDS011;964;42.606;23.588;2023-02-15T01:28:36;17.93;;;12.13;;
1925;SDS011;964;42.606;23.588;2023-02-15T01:31:06;39.83;;;19.67;;
1925;SDS011;964;42.606;23.588;2023-02-15T01:33:34;20.03;;;11.63;;
1925;SDS011;964;42.606;23.588;2023-02-15T01:36:01;38.67;;;16.77;;
1925;SDS011;964;42.606;23.588;2023-02-15T01:38:28;20.00;;;11.83;;
1925;SDS011;964;42.606;23.588;2023-02-15T01:40:55;27.60;;;14.03;;
1925;SDS011;964;42.606;23.588;2023-02-15T01:43:44;27.03;;;13.40;;
1925;SDS011;964;42.606;23.588;2023-02-15T01:46:13;32.17;;;14.83;;
1925;SDS011;964;42.606;23.588;2023-02-15T01:48:43;26.10;;;11.67;;
1925;SDS011;964;42.606;23.588;2023-02-15T01:51:13;24.73;;;12.83;;
1925;SDS011;964;42.606;23.588;2023-02-15T01:53:45;28.00;;;15.20;;
1925;SDS011;964;42.606;23.588;2023-02-15T01:56:16;35.73;;;18.20;;
1925;SDS011;964;42.606;23.588;2023-02-15T01:58:47;38.33;;;19.10;;
1925;SDS011;964;42.606;23.588;2023-02-15T02:01:15;30.70;;;17.10;;
1925;SDS011;964;42.606;23.588;2023-02-15T02:03:45;32.10;;;15.70;;
1925;SDS011;964;42.606;23.588;2023-02-15T02:06:19;29.40;;;15.10;;
1925;SDS011;964;42.606;23.588;2023-02-15T02:08:46;28.17;;;15.17;;
1925;SDS011;964;42.606;23.588;2023-02-15T02:11:14;30.20;;;16.97;;
1925;SDS011;964;42.606;23.588;2023-02-15T02:13:42;29.10;;;14.60;;
1925;SDS011;964;42.606;23.588;2023-02-15T02:16:13;29.40;;;16.27;;
1925;SDS011;964;42.606;23.588;2023-02-15T02:18:45;31.93;;;14.80;;
1925;SDS011;964;42.606;23.588;2023-02-15T02:24:30;31.00;;;14.40;;
1925;SDS011;964;42.606;23.588;2023-02-15T02:27:28;23.70;;;11.90;;
1925;SDS011;964;42.606;23.588;2023-02-15T02:33:07;36.97;;;15.63;;
1925;SDS011;964;42.606;23.588;2023-02-15T02:35:43;30.17;;;17.07;;
1925;SDS011;964;42.606;23.588;2023-02-15T02:38:21;41.23;;;19.10;;
1925;SDS011;964;42.606;23.588;2023-02-15T02:40:53;38.57;;;18.17;;
1925;SDS011;964;42.606;23.588;2023-02-15T02:43:30;36.13;;;18.40;;
1925;SDS011;964;42.606;23.588;2023-02-15T02:46:00;38.53;;;18.37;;
1925;SDS011;964;42.606;23.588;2023-02-15T02:48:34;40.27;;;18.93;;
1925;SDS011;964;42.606;23.588;2023-02-15T02:51:01;42.33;;;20.20;;
1925;SDS011;964;42.606;23.588;2023-02-15T02:53:29;37.87;;;20.77;;
1925;SDS011;964;42.606;23.588;2023-02-15T02:55:58;41.63;;;20.40;;
1925;SDS011;964;42.606;23.588;2023-02-15T02:58:33;38.53;;;19.87;;
1925;SDS011;964;42.606;23.588;2023-02-15T03:01:05;39.60;;;19.27;;
1925;SDS011;964;42.606;23.588;2023-02-15T03:03:39;42.30;;;22.20;;
1925;SDS011;964;42.606;23.588;2023-02-15T03:06:08;43.70;;;20.47;;
1925;SDS011;964;42.606;23.588;2023-02-15T03:08:43;37.60;;;19.07;;
1925;SDS011;964;42.606;23.588;2023-02-15T03:11:12;41.70;;;20.10;;
1925;SDS011;964;42.606;23.588;2023-02-15T03:13:39;45.47;;;20.87;;
1925;SDS011;964;42.606;23.588;2023-02-15T03:16:07;39.70;;;20.37;;
1925;SDS011;964;42.606;23.588;2023-02-15T03:18:56;36.37;;;17.93;;
1925;SDS011;964;42.606;23.588;2023-02-15T03:21:30;41.20;;;20.80;;
1925;SDS011;964;42.606;23.588;2023-02-15T03:24:02;36.57;;;17.43;;
1925;SDS011;964;42.606;23.588;2023-02-15T03:26:32;30.60;;;17.17;;
1925;SDS011;964;42.606;23.588;2023-02-15T03:29:02;35.97;;;17.80;;
1925;SDS011;964;42.606;23.588;2023-02-15T03:31:32;36.07;;;17.83;;
1925;SDS011;964;42.606;23.588;2023-02-15T03:34:06;39.77;;;16.87;;
1925;SDS011;964;42.606;23.588;2023-02-15T03:36:37;38.63;;;16.43;;
1925;SDS011;964;42.606;23.588;2023-02-15T03:39:10;37.77;;;18.97;;
1925;SDS011;964;42.606;23.588;2023-02-15T03:41:45;28.70;;;15.50;;
1925;SDS011;964;42.606;23.588;2023-02-15T03:44:23;28.23;;;14.53;;
1925;SDS011;964;42.606;23.588;2023-02-15T03:46:55;31.43;;;15.43;;
1925;SDS011;964;42.606;23.588;2023-02-15T03:49:29;26.00;;;14.27;;
1925;SDS011;964;42.606;23.588;2023-02-15T03:52:02;29.77;;;14.50;;
1925;SDS011;964;42.606;23.588;2023-02-15T03:54:32;35.77;;;16.40;;
1925;SDS011;964;42.606;23.588;2023-02-15T03:57:16;27.67;;;14.80;;
1925;SDS011;964;42.606;23.588;2023-02-15T04:00:04;35.10;;;17.10;;
1925;SDS011;964;42.606;23.588;2023-02-15T04:05:52;30.17;;;15.67;;
1925;SDS011;964;42.606;23.588;2023-02-15T04:08:19;37.23;;;16.90;;
1925;SDS011;964;42.606;23.588;2023-02-15T04:11:05;35.80;;;17.77;;
1925;SDS011;964;42.606;23.588;2023-02-15T04:13:31;32.07;;;16.50;;
1925;SDS011;964;42.606;23.588;2023-02-15T04:16:00;43.73;;;17.90;;
1925;SDS011;964;42.606;23.588;2023-02-15T04:18:29;30.60;;;14.63;;
1925;SDS011;964;42.606;23.588;2023-02-15T04:21:15;28.87;;;14.60;;
1925;SDS011;964;42.606;23.588;2023-02-15T04:24:00;32.03;;;17.47;;
1925;SDS011;964;42.606;23.588;2023-02-15T04:26:44;30.90;;;13.77;;
1925;SDS011;964;42.606;23.588;2023-02-15T04:29:12;28.30;;;14.97;;
1925;SDS011;964;42.606;23.588;2023-02-15T04:31:39;23.57;;;11.23;;
1925;SDS011;964;42.606;23.588;2023-02-15T04:34:06;39.80;;;17.53;;
1925;SDS011;964;42.606;23.588;2023-02-15T04:36:34;35.97;;;17.30;;
1925;SDS011;964;42.606;23.588;2023-02-15T04:39:00;32.33;;;16.23;;
1925;SDS011;964;42.606;23.588;2023-02-15T04:41:27;27.60;;;15.13;;
1925;SDS011;964;42.606;23.588;2023-02-15T04:43:54;25.40;;;15.13;;
1925;SDS011;964;42.606;23.588;2023-02-15T04:46:21;33.83;;;18.10;;
1925;SDS011;964;42.606;23.588;2023-02-15T04:48:48;23.27;;;13.67;;
1925;SDS011;964;42.606;23.588;2023-02-15T04:51:15;34.67;;;16.70;;
1925;SDS011;964;42.606;23.588;2023-02-15T04:53:43;34.33;;;19.03;;
1925;SDS011;964;42.606;23.588;2023-02-15T04:56:09;29.20;;;16.20;;
1925;SDS011;964;42.606;23.588;2023-02-15T04:58:36;29.40;;;15.97;;
1925;SDS011;964;42.606;23.588;2023-02-15T05:01:06;38.80;;;17.03;;
1925;SDS011;964;42.606;23.588;2023-02-15T05:03:33;33.50;;;17.67;;
1925;SDS011;964;42.606;23.588;2023-02-15T05:06:00;38.23;;;17.27;;
1925;SDS011;964;42.606;23.588;2023-02-15T05:08:27;36.43;;;18.30;;
1925;SDS011;964;42.606;23.588;2023-02-15T05:10:55;36.10;;;17.37;;
1925;SDS011;964;42.606;23.588;2023-02-15T05:13:21;27.10;;;16.07;;
1925;SDS011;964;42.606;23.588;2023-02-15T05:15:48;42.33;;;18.80;;
1925;SDS011;964;42.606;23.588;2023-02-15T05:18:15;37.20;;;17.10;;
1925;SDS011;964;42.606;23.588;2023-02-15T05:20:43;35.93;;;17.70;;
1925;SDS011;964;42.606;23.588;2023-02-15T05:23:10;35.50;;;19.03;;
1925;SDS011;964;42.606;23.588;2023-02-15T05:25:40;40.13;;;18.23;;
1925;SDS011;964;42.606;23.588;2023-02-15T05:28:46;25.63;;;13.63;;
1925;SDS011;964;42.606;23.588;2023-02-15T05:34:30;36.83;;;17.50;;
1925;SDS011;964;42.606;23.588;2023-02-15T05:36:56;38.47;;;19.00;;
1925;SDS011;964;42.606;23.588;2023-02-15T05:39:23;38.13;;;17.77;;
1925;SDS011;964;42.606;23.588;2023-02-15T05:41:50;30.33;;;16.53;;
1925;SDS011;964;42.606;23.588;2023-02-15T05:44:18;42.77;;;20.87;;
1925;SDS011;964;42.606;23.588;2023-02-15T05:46:44;33.60;;;19.00;;
1925;SDS011;964;42.606;23.588;2023-02-15T05:49:11;44.70;;;19.87;;
1925;SDS011;964;42.606;23.588;2023-02-15T05:51:38;42.93;;;21.87;;
1925;SDS011;964;42.606;23.588;2023-02-15T05:54:04;40.50;;;20.17;;
1925;SDS011;964;42.606;23.588;2023-02-15T05:56:31;38.67;;;18.80;;
1925;SDS011;964;42.606;23.588;2023-02-15T05:58:58;35.83;;;19.37;;
1925;SDS011;964;42.606;23.588;2023-02-15T06:01:26;39.73;;;19.70;;
1925;SDS011;964;42.606;23.588;2023-02-15T06:03:53;43.47;;;20.67;;
1925;SDS011;964;42.606;23.588;2023-02-15T06:06:20;44.57;;;21.47;;
1925;SDS011;964;42.606;23.588;2023-02-15T06:08:47;43.17;;;22.47;;
1925;SDS011;964;42.606;23.588;2023-02-15T06:11:14;45.47;;;22.93;;
1925;SDS011;964;42.606;23.588;2023-02-15T06:13:41;46.67;;;21.90;;
1925;SDS011;964;42.606;23.588;2023-02-15T06:16:07;46.50;;;21.10;;
1925;SDS011;964;42.606;23.588;2023-02-15T06:18:36;39.80;;;20.77;;
1925;SDS011;964;42.606;23.588;2023-02-15T06:21:02;45.00;;;21.87;;
1925;SDS011;964;42.606;23.588;2023-02-15T06:23:29;39.87;;;21.40;;
1925;SDS011;964;42.606;23.588;2023-02-15T06:25:56;44.43;;;24.13;;
1925;SDS011;964;42.606;23.588;2023-02-15T06:28:23;42.77;;;20.97;;
1925;SDS011;964;42.606;23.588;2023-02-15T06:30:51;41.47;;;20.57;;
1925;SDS011;964;42.606;23.588;2023-02-15T06:33:18;43.50;;;20.87;;
1925;SDS011;964;42.606;23.588;2023-02-15T06:35:46;39.20;;;19.77;;
1925;SDS011;964;42.606;23.588;2023-02-15T06:38:12;43.60;;;20.30;;
1925;SDS011;964;42.606;23.588;2023-02-15T06:40:39;43.13;;;21.00;;
1925;SDS011;964;42.606;23.588;2023-02-15T06:43:06;37.40;;;20.50;;
1925;SDS011;964;42.606;23.588;2023-02-15T06:45:33;47.30;;;20.40;;
1925;SDS011;964;42.606;23.588;2023-02-15T06:47:59;39.37;;;22.17;;
1925;SDS011;964;42.606;23.588;2023-02-15T06:50:26;45.13;;;21.47;;
1925;SDS011;964;42.606;23.588;2023-02-15T06:52:56;41.03;;;21.40;;
1925;SDS011;964;42.606;23.588;2023-02-15T06:55:24;40.20;;;21.47;;
1925;SDS011;964;42.606;23.588;2023-02-15T06:57:51;43.13;;;20.77;;
1925;SDS011;964;42.606;23.588;2023-02-15T07:00:17;46.77;;;23.93;;
1925;SDS011;964;42.606;23.588;2023-02-15T07:02:47;48.03;;;24.37;;
1925;SDS011;964;42.606;23.588;2023-02-15T07:05:13;40.80;;;23.50;;
1925;SDS011;964;42.606;23.588;2023-02-15T07:07:40;43.73;;;24.80;;
1925;SDS011;964;42.606;23.588;2023-02-15T07:10:08;48.50;;;24.90;;
1925;SDS011;964;42.606;23.588;2023-02-15T07:12:35;42.00;;;23.40;;
1925;SDS011;964;42.606;23.588;2023-02-15T07:15:07;45.43;;;25.03;;
1925;SDS011;964;42.606;23.588;2023-02-15T07:17:34;44.73;;;23.90;;
1925;SDS011;964;42.606;23.588;2023-02-15T07:20:03;45.43;;;23.20;;
1925;SDS011;964;42.606;23.588;2023-02-15T07:22:32;50.07;;;24.97;;
1925;SDS011;964;42.606;23.588;2023-02-15T07:25:01;47.43;;;24.10;;
1925;SDS011;964;42.606;23.588;2023-02-15T07:27:30;38.47;;;22.40;;
1925;SDS011;964;42.606;23.588;2023-02-15T07:29:57;40.17;;;23.57;;
1925;SDS011;964;42.606;23.588;2023-02-15T07:32:26;42.43;;;20.97;;
1925;SDS011;964;42.606;23.588;2023-02-15T07:34:53;43.40;;;23.30;;
1925;SDS011;964;42.606;23.588;2023-02-15T07:37:20;42.70;;;23.13;;
1925;SDS011;964;42.606;23.588;2023-02-15T07:39:47;41.37;;;22.43;;
1925;SDS011;964;42.606;23.588;2023-02-15T07:42:13;48.23;;;24.17;;
1925;SDS011;964;42.606;23.588;2023-02-15T07:44:41;39.90;;;22.70;;
1925;SDS011;964;42.606;23.588;2023-02-15T07:47:08;40.67;;;24.47;;
1925;SDS011;964;42.606;23.588;2023-02-15T07:49:35;46.80;;;25.17;;
1925;SDS011;964;42.606;23.588;2023-02-15T07:52:02;39.00;;;23.53;;
1925;SDS011;964;42.606;23.588;2023-02-15T07:54:28;41.00;;;24.20;;
1925;SDS011;964;42.606;23.588;2023-02-15T07:56:55;43.20;;;22.50;;
1925;SDS011;964;42.606;23.588;2023-02-15T07:59:22;40.23;;;25.60;;
1925;SDS011;964;42.606;23.588;2023-02-15T08:01:51;41.90;;;22.23;;
1925;SDS011;964;42.606;23.588;2023-02-15T08:04:19;48.10;;;24.17;;
1925;SDS011;964;42.606;23.588;2023-02-15T08:06:45;40.93;;;23.43;;
1925;SDS011;964;42.606;23.588;2023-02-15T08:09:12;45.47;;;24.33;;
1925;SDS011;964;42.606;23.588;2023-02-15T08:11:38;38.87;;;20.53;;
1925;SDS011;964;42.606;23.588;2023-02-15T08:14:06;40.57;;;19.23;;
1925;SDS011;964;42.606;23.588;2023-02-15T08:16:35;35.80;;;19.87;;
1925;SDS011;964;42.606;23.588;2023-02-15T08:19:05;31.47;;;17.50;;
1925;SDS011;964;42.606;23.588;2023-02-15T08:21:33;28.80;;;15.73;;
1925;SDS011;964;42.606;23.588;2023-02-15T08:24:01;38.33;;;17.30;;
1925;SDS011;964;42.606;23.588;2023-02-15T08:26:30;33.47;;;15.60;;
1925;SDS011;964;42.606;23.588;2023-02-15T08:28:57;27.13;;;16.37;;
1925;SDS011;964;42.606;23.588;2023-02-15T08:31:24;32.47;;;17.47;;
1925;SDS011;964;42.606;23.588;2023-02-15T08:33:53;23.17;;;13.03;;
1925;SDS011;964;42.606;23.588;2023-02-15T08:36:23;32.93;;;17.47;;
1925;SDS011;964;42.606;23.588;2023-02-15T08:38:52;29.17;;;15.20;;
1925;SDS011;964;42.606;23.588;2023-02-15T08:41:19;27.43;;;13.93;;
1925;SDS011;964;42.606;23.588;2023-02-15T08:43:50;24.00;;;12.77;;
1925;SDS011;964;42.606;23.588;2023-02-15T08:46:20;33.80;;;17.80;;
1925;SDS011;964;42.606;23.588;2023-02-15T08:48:47;31.20;;;15.57;;
1925;SDS011;964;42.606;23.588;2023-02-15T08:51:15;36.20;;;17.60;;
1925;SDS011;964;42.606;23.588;2023-02-15T08:53:44;35.40;;;17.87;;
1925;SDS011;964;42.606;23.588;2023-02-15T08:56:14;31.10;;;16.60;;
1925;SDS011;964;42.606;23.588;2023-02-15T08:58:41;28.60;;;15.77;;
1925;SDS011;964;42.606;23.588;2023-02-15T09:01:08;30.43;;;16.10;;
1925;SDS011;964;42.606;23.588;2023-02-15T09:03:36;27.70;;;16.57;;
1925;SDS011;964;42.606;23.588;2023-02-15T09:06:03;30.13;;;17.53;;
1925;SDS011;964;42.606;23.588;2023-02-15T09:08:30;31.90;;;17.13;;
1925;SDS011;964;42.606;23.588;2023-02-15T09:11:05;33.03;;;17.33;;
1925;SDS011;964;42.606;23.588;2023-02-15T09:13:34;30.43;;;17.60;;
1925;SDS011;964;42.606;23.588;2023-02-15T09:16:01;27.73;;;16.73;;
1925;SDS011;964;42.606;23.588;2023-02-15T09:18:29;28.30;;;15.10;;
1925;SDS011;964;42.606;23.588;2023-02-15T09:20:57;28.33;;;15.87;;
1925;SDS011;964;42.606;23.588;2023-02-15T09:23:29;24.73;;;13.77;;
1925;SDS011;964;42.606;23.588;2023-02-15T09:25:56;30.60;;;16.40;;
1925;SDS011;964;42.606;23.588;2023-02-15T09:28:24;29.43;;;14.80;;
1925;SDS011;964;42.606;23.588;2023-02-15T09:30:50;25.40;;;14.13;;
1925;SDS011;964;42.606;23.588;2023-02-15T09:33:18;23.47;;;15.17;;
1925;SDS011;964;42.606;23.588;2023-02-15T09:35:44;27.90;;;16.00;;
1925;SDS011;964;42.606;23.588;2023-02-15T09:38:11;29.67;;;15.33;;
1925;SDS011;964;42.606;23.588;2023-02-15T09:40:41;28.87;;;16.70;;
1925;SDS011;964;42.606;23.588;2023-02-15T09:43:26;26.77;;;16.17;;
1925;SDS011;964;42.606;23.588;2023-02-15T09:46:06;28.90;;;17.60;;
1925;SDS011;964;42.606;23.588;2023-02-15T09:48:46;27.10;;;16.77;;
1925;SDS011;964;42.606;23.588;2023-02-15T09:54:20;24.13;;;16.57;;
1925;SDS011;964;42.606;23.588;2023-02-15T09:56:58;32.30;;;17.60;;
1925;SDS011;964;42.606;23.588;2023-02-15T09:59:33;23.80;;;14.97;;
1925;SDS011;964;42.606;23.588;2023-02-15T10:02:13;21.43;;;12.70;;
1925;SDS011;964;42.606;23.588;2023-02-15T10:04:53;22.20;;;15.00;;
1925;SDS011;964;42.606;23.588;2023-02-15T10:07:33;26.93;;;13.70;;
1925;SDS011;964;42.606;23.588;2023-02-15T10:10:21;20.07;;;13.00;;
1925;SDS011;964;42.606;23.588;2023-02-15T10:12:57;25.90;;;14.10;;
1925;SDS011;964;42.606;23.588;2023-02-15T10:15:42;18.23;;;13.20;;
1925;SDS011;964;42.606;23.588;2023-02-15T10:18:24;21.83;;;13.80;;
1925;SDS011;964;42.606;23.588;2023-02-15T10:21:04;22.30;;;14.90;;
1925;SDS011;964;42.606;23.588;2023-02-15T10:23:41;19.77;;;13.83;;
1925;SDS011;964;42.606;23.588;2023-02-15T10:26:18;23.60;;;14.47;;
1925;SDS011;964;42.606;23.588;2023-02-15T10:28:48;15.80;;;11.23;;
1925;SDS011;964;42.606;23.588;2023-02-15T10:31:26;20.90;;;13.67;;
1925;SDS011;964;42.606;23.588;2023-02-15T10:34:07;21.50;;;14.10;;
1925;SDS011;964;42.606;23.588;2023-02-15T10:36:46;23.47;;;15.00;;
1925;SDS011;964;42.606;23.588;2023-02-15T10:39:25;16.90;;;11.20;;
1925;SDS011;964;42.606;23.588;2023-02-15T10:42:00;19.67;;;14.17;;
1925;SDS011;964;42.606;23.588;2023-02-15T10:44:35;19.47;;;12.90;;
1925;SDS011;964;42.606;23.588;2023-02-15T10:47:17;20.70;;;13.77;;
1925;SDS011;964;42.606;23.588;2023-02-15T10:50:03;18.37;;;13.37;;
1925;SDS011;964;42.606;23.588;2023-02-15T10:52:37;21.20;;;14.03;;
1925;SDS011;964;42.606;23.588;2023-02-15T10:55:23;23.83;;;15.03;;
1925;SDS011;964;42.606;23.588;2023-02-15T10:57:58;22.03;;;12.90;;
1925;SDS011;964;42.606;23.588;2023-02-15T11:00:33;23.47;;;14.37;;
1925;SDS011;964;42.606;23.588;2023-02-15T11:03:19;20.70;;;14.67;;
1925;SDS011;964;42.606;23.588;2023-02-15T11:06:00;16.77;;;12.03;;
1925;SDS011;964;42.606;23.588;2023-02-15T11:08:32;24.57;;;16.13;;
1925;SDS011;964;42.606;23.588;2023-02-15T11:11:02;20.23;;;13.77;;
1925;SDS011;964;42.606;23.588;2023-02-15T11:13:33;19.43;;;13.13;;
1925;SDS011;964;42.606;23.588;2023-02-15T11:16:05;20.83;;;14.33;;
1925;SDS011;964;42.606;23.588;2023-02-15T11:18:39;20.23;;;11.47;;
1925;SDS011;964;42.606;23.588;2023-02-15T11:21:09;22.30;;;13.60;;
1925;SDS011;964;42.606;23.588;2023-02-15T11:23:40;20.43;;;13.90;;
1925;SDS011;964;42.606;23.588;2023-02-15T11:26:11;21.53;;;14.80;;
1925;SDS011;964;42.606;23.588;2023-02-15T11:28:42;24.07;;;15.33;;
1925;SDS011;964;42.606;23.588;2023-02-15T11:31:15;21.67;;;14.17;;
1925;SDS011;964;42.606;23.588;2023-02-15T11:33:46;20.20;;;12.47;;
1925;SDS011;964;42.606;23.588;2023-02-15T11:36:18;19.93;;;13.60;;
1925;SDS011;964;42.606;23.588;2023-02-15T11:38:49;22.87;;;14.67;;
1925;SDS011;964;42.606;23.588;2023-02-15T11:41:21;24.70;;;13.93;;
1925;SDS011;964;42.606;23.588;2023-02-15T11:43:53;23.00;;;15.20;;
1925;SDS011;964;42.606;23.588;2023-02-15T11:46:23;23.93;;;14.70;;
1925;SDS011;964;42.606;23.588;2023-02-15T11:48:51;20.57;;;14.67;;
1925;SDS011;964;42.606;23.588;2023-02-15T11:51:18;24.33;;;15.00;;
1925;SDS011;964;42.606;23.588;2023-02-15T11:53:48;25.30;;;14.63;;
1925;SDS011;964;42.606;23.588;2023-02-15T11:56:16;22.00;;;14.40;;
1925;SDS011;964;42.606;23.588;2023-02-15T11:58:45;26.27;;;15.30;;
1925;SDS011;964;42.606;23.588;2023-02-15T12:01:16;24.60;;;14.37;;
1925;SDS011;964;42.606;23.588;2023-02-15T12:03:51;21.70;;;14.50;;
1925;SDS011;964;42.606;23.588;2023-02-15T12:06:22;25.27;;;15.57;;
1925;SDS011;964;42.606;23.588;2023-02-15T12:08:56;23.67;;;15.40;;
1925;SDS011;964;42.606;23.588;2023-02-15T12:11:31;28.20;;;16.67;;
1925;SDS011;964;42.606;23.588;2023-02-15T12:14:02;23.20;;;13.60;;
1925;SDS011;964;42.606;23.588;2023-02-15T12:16:31;21.83;;;14.20;;
1925;SDS011;964;42.606;23.588;2023-02-15T12:19:12;22.70;;;15.70;;
1925;SDS011;964;42.606;23.588;2023-02-15T12:21:49;19.50;;;13.37;;
1925;SDS011;964;42.606;23.588;2023-02-15T12:24:19;23.20;;;14.40;;
1925;SDS011;964;42.606;23.588;2023-02-15T12:26:56;22.50;;;14.27;;
1925;SDS011;964;42.606;23.588;2023-02-15T12:29:26;27.50;;;16.83;;
1925;SDS011;964;42.606;23.588;2023-02-15T12:31:55;21.43;;;14.83;;
1925;SDS011;964;42.606;23.588;2023-02-15T12:34:26;24.07;;;15.20;;
1925;SDS011;964;42.606;23.588;2023-02-15T12:36:57;25.40;;;15.93;;
1925;SDS011;964;42.606;23.588;2023-02-15T12:39:28;25.10;;;16.00;;
1925;SDS011;964;42.606;23.588;2023-02-15T12:42:00;25.83;;;16.43;;
1925;SDS011;964;42.606;23.588;2023-02-15T12:44:30;21.27;;;15.73;;
1925;SDS011;964;42.606;23.588;2023-02-15T12:47:00;25.20;;;16.43;;
1925;SDS011;964;42.606;23.588;2023-02-15T12:49:30;25.07;;;17.43;;
1925;SDS011;964;42.606;23.588;2023-02-15T12:51:58;25.27;;;17.27;;
1925;SDS011;964;42.606;23.588;2023-02-15T12:54:33;25.00;;;16.00;;
1925;SDS011;964;42.606;23.588;2023-02-15T12:57:23;20.50;;;15.40;;
1925;SDS011;964;42.606;23.588;2023-02-15T12:59:53;29.13;;;17.07;;
1925;SDS011;964;42.606;23.588;2023-02-15T13:02:23;20.57;;;15.00;;
1925;SDS011;964;42.606;23.588;2023-02-15T13:04:54;22.97;;;15.77;;
1925;SDS011;964;42.606;23.588;2023-02-15T13:07:23;31.47;;;17.50;;
1925;SDS011;964;42.606;23.588;2023-02-15T13:09:56;22.07;;;15.40;;
1925;SDS011;964;42.606;23.588;2023-02-15T13:12:24;31.27;;;16.70;;
1925;SDS011;964;42.606;23.588;2023-02-15T13:14:52;23.67;;;15.97;;
1925;SDS011;964;42.606;23.588;2023-02-15T13:17:23;23.23;;;14.87;;
1925;SDS011;964;42.606;23.588;2023-02-15T13:19:56;22.90;;;15.47;;
1925;SDS011;964;42.606;23.588;2023-02-15T13:22:25;22.93;;;15.10;;
1925;SDS011;964;42.606;23.588;2023-02-15T13:24:58;19.40;;;15.20;;
1925;SDS011;964;42.606;23.588;2023-02-15T13:27:32;29.33;;;15.70;;
1925;SDS011;964;42.606;23.588;2023-02-15T13:30:03;25.67;;;16.93;;
1925;SDS011;964;42.606;23.588;2023-02-15T13:32:43;26.63;;;17.20;;
1925;SDS011;964;42.606;23.588;2023-02-15T13:35:15;23.40;;;15.77;;
1925;SDS011;964;42.606;23.588;2023-02-15T13:37:45;23.90;;;15.40;;
1925;SDS011;964;42.606;23.588;2023-02-15T13:40:29;21.03;;;14.00;;
1925;SDS011;964;42.606;23.588;2023-02-15T13:43:05;22.47;;;15.53;;
1925;SDS011;964;42.606;23.588;2023-02-15T13:45:50;23.10;;;15.50;;
1925;SDS011;964;42.606;23.588;2023-02-15T13:48:30;23.17;;;15.50;;
1925;SDS011;964;42.606;23.588;2023-02-15T13:51:07;23.57;;;16.00;;
1925;SDS011;964;42.606;23.588;2023-02-15T13:53:45;24.33;;;15.40;;
1925;SDS011;964;42.606;23.588;2023-02-15T13:56:26;28.60;;;16.97;;
1925;SDS011;964;42.606;23.588;2023-02-15T13:59:06;26.27;;;16.67;;
1925;SDS011;964;42.606;23.588;2023-02-15T14:01:53;27.13;;;17.40;;
1925;SDS011;964;42.606;23.588;2023-02-15T14:07:25;28.57;;;17.33;;
1925;SDS011;964;42.606;23.588;2023-02-15T14:10:09;24.80;;;15.20;;
1925;SDS011;964;42.606;23.588;2023-02-15T14:12:58;30.97;;;16.03;;
1925;SDS011;964;42.606;23.588;2023-02-15T14:15:47;23.87;;;14.00;;
1925;SDS011;964;42.606;23.588;2023-02-15T14:18:20;26.50;;;15.30;;
1925;SDS011;964;42.606;23.588;2023-02-15T14:20:56;26.50;;;15.30;;
1925;SDS011;964;42.606;23.588;2023-02-15T14:23:37;24.30;;;14.10;;
1925;SDS011;964;42.606;23.588;2023-02-15T14:26:15;26.80;;;16.27;;
1925;SDS011;964;42.606;23.588;2023-02-15T14:28:49;27.10;;;16.00;;
1925;SDS011;964;42.606;23.588;2023-02-15T14:31:26;25.40;;;16.00;;
1925;SDS011;964;42.606;23.588;2023-02-15T14:33:57;23.70;;;14.60;;
1925;SDS011;964;42.606;23.588;2023-02-15T14:36:24;25.60;;;15.60;;
1925;SDS011;964;42.606;23.588;2023-02-15T14:38:59;21.47;;;14.30;;
1925;SDS011;964;42.606;23.588;2023-02-15T14:41:53;24.77;;;13.80;;
1925;SDS011;964;42.606;23.588;2023-02-15T14:44:27;27.57;;;15.50;;
1925;SDS011;964;42.606;23.588;2023-02-15T14:47:04;25.10;;;14.43;;
1925;SDS011;964;42.606;23.588;2023-02-15T14:49:35;24.30;;;15.30;;
1925;SDS011;964;42.606;23.588;2023-02-15T14:52:04;24.70;;;13.50;;
1925;SDS011;964;42.606;23.588;2023-02-15T14:57:24;22.47;;;12.20;;
1925;SDS011;964;42.606;23.588;2023-02-15T14:59:57;27.27;;;15.30;;
1925;SDS011;964;42.606;23.588;2023-02-15T15:02:29;27.67;;;14.60;;
1925;SDS011;964;42.606;23.588;2023-02-15T15:05:07;27.40;;;15.87;;
1925;SDS011;964;42.606;23.588;2023-02-15T15:07:41;24.73;;;15.10;;
1925;SDS011;964;42.606;23.588;2023-02-15T15:19:14;26.97;;;16.07;;
1925;SDS011;964;42.606;23.588;2023-02-15T15:22:18;27.40;;;15.60;;
1925;SDS011;964;42.606;23.588;2023-02-15T15:24:47;30.23;;;15.57;;
1925;SDS011;964;42.606;23.588;2023-02-15T15:37:01;28.10;;;15.67;;
1925;SDS011;964;42.606;23.588;2023-02-15T15:43:20;26.67;;;15.80;;
1925;SDS011;964;42.606;23.588;2023-02-15T15:46:06;30.80;;;16.93;;
1925;SDS011;964;42.606;23.588;2023-02-15T15:48:41;34.63;;;17.70;;
1925;SDS011;964;42.606;23.588;2023-02-15T15:51:10;39.23;;;18.13;;
1925;SDS011;964;42.606;23.588;2023-02-15T15:53:41;29.13;;;16.63;;
1925;SDS011;964;42.606;23.588;2023-02-15T15:56:13;34.00;;;17.13;;